sensor_id;sensor_type;location;lat;lon;timestamp;temperature;humidity
59311;DHT22;45078;51.654;21.250;2023-04-24T00:00:11;9.00;99.90
59311;DHT22;45078;51.654;21.250;2023-04-24T00:02:44;8.90;99.90
59311;DHT22;45078;51.654;21.250;2023-04-24T00:05:17;8.90;99.90
59311;DHT22;45078;51.654;21.250;2023-04-24T00:07:45;8.90;99.90
59311;DHT22;45078;51.654;21.250;2023-04-24T00:10:12;8.70;99.90
59311;DHT22;45078;51.654;21.250;2023-04-24T00:12:38;8.60;99.90
59311;DHT22;45078;51.654;21.250;2023-04-24T00:15:04;8.50;99.90
59311;DHT22;45078;51.654;21.250;2023-04-24T00:17:30;8.40;99.90
59311;DHT22;45078;51.654;21.250;2023-04-24T00:19:56;8.40;99.90
59311;DHT22;45078;51.654;21.250;2023-04-24T00:22:26;8.30;99.90
59311;DHT22;45078;51.654;21.250;2023-04-24T00:24:52;8.20;99.90
59311;DHT22;45078;51.654;21.250;2023-04-24T00:27:17;8.10;99.90
59311;DHT22;45078;51.654;21.250;2023-04-24T00:29:43;8.10;99.90
59311;DHT22;45078;51.654;21.250;2023-04-24T00:32:09;8.10;99.90
59311;DHT22;45078;51.654;21.250;2023-04-24T00:34:35;8.10;99.90
59311;DHT22;45078;51.654;21.250;2023-04-24T00:37:00;8.00;99.90
59311;DHT22;45078;51.654;21.250;2023-04-24T00:39:26;7.90;99.90
59311;DHT22;45078;51.654;21.250;2023-04-24T00:41:52;7.90;99.90
59311;DHT22;45078;51.654;21.250;2023-04-24T00:44:18;7.80;99.90
59311;DHT22;45078;51.654;21.250;2023-04-24T00:46:46;7.70;99.90
59311;DHT22;45078;51.654;21.250;2023-04-24T00:49:13;7.60;99.90
59311;DHT22;45078;51.654;21.250;2023-04-24T00:51:39;7.50;99.90
59311;DHT22;45078;51.654;21.250;2023-04-24T00:54:06;7.50;99.90
59311;DHT22;45078;51.654;21.250;2023-04-24T00:56:32;7.50;99.90
59311;DHT22;45078;51.654;21.250;2023-04-24T00:58:58;7.50;99.90
59311;DHT22;45078;51.654;21.250;2023-04-24T01:01:24;7.40;99.90
59311;DHT22;45078;51.654;21.250;2023-04-24T01:03:51;7.30;99.90
59311;DHT22;45078;51.654;21.250;2023-04-24T01:06:18;7.30;99.90
59311;DHT22;45078;51.654;21.250;2023-04-24T01:08:46;7.30;99.90
59311;DHT22;45078;51.654;21.250;2023-04-24T01:11:12;7.20;99.90
59311;DHT22;45078;51.654;21.250;2023-04-24T01:13:39;7.20;99.90
59311;DHT22;45078;51.654;21.250;2023-04-24T01:16:05;7.20;99.90
59311;DHT22;45078;51.654;21.250;2023-04-24T01:18:31;7.20;99.90
59311;DHT22;45078;51.654;21.250;2023-04-24T01:20:59;7.20;99.90
59311;DHT22;45078;51.654;21.250;2023-04-24T01:23:26;7.10;99.90
59311;DHT22;45078;51.654;21.250;2023-04-24T01:25:52;7.10;99.90
59311;DHT22;45078;51.654;21.250;2023-04-24T01:28:18;7.10;99.90
59311;DHT22;45078;51.654;21.250;2023-04-24T01:30:44;7.10;99.90
59311;DHT22;45078;51.654;21.250;2023-04-24T01:33:10;7.10;99.90
59311;DHT22;45078;51.654;21.250;2023-04-24T01:35:37;7.10;99.90
59311;DHT22;45078;51.654;21.250;2023-04-24T01:38:03;7.00;99.90
59311;DHT22;45078;51.654;21.250;2023-04-24T01:40:30;7.00;99.90
59311;DHT22;45078;51.654;21.250;2023-04-24T01:42:57;6.90;99.90
59311;DHT22;45078;51.654;21.250;2023-04-24T01:45:23;7.00;99.90
59311;DHT22;45078;51.654;21.250;2023-04-24T01:47:49;7.00;99.90
59311;DHT22;45078;51.654;21.250;2023-04-24T01:50:15;7.10;99.90
59311;DHT22;45078;51.654;21.250;2023-04-24T01:52:42;7.10;99.90
59311;DHT22;45078;51.654;21.250;2023-04-24T01:55:08;7.10;99.90
59311;DHT22;45078;51.654;21.250;2023-04-24T01:57:34;7.00;99.90
59311;DHT22;45078;51.654;21.250;2023-04-24T02:00:00;7.00;99.90
59311;DHT22;45078;51.654;21.250;2023-04-24T02:02:26;6.90;99.90
59311;DHT22;45078;51.654;21.250;2023-04-24T02:04:56;6.90;99.90
59311;DHT22;45078;51.654;21.250;2023-04-24T02:07:22;7.10;99.90
59311;DHT22;45078;51.654;21.250;2023-04-24T02:09:48;7.30;99.90
59311;DHT22;45078;51.654;21.250;2023-04-24T02:12:16;7.40;99.90
59311;DHT22;45078;51.654;21.250;2023-04-24T02:14:45;7.50;99.90
59311;DHT22;45078;51.654;21.250;2023-04-24T02:17:11;7.60;99.90
59311;DHT22;45078;51.654;21.250;2023-04-24T02:19:38;7.70;99.90
59311;DHT22;45078;51.654;21.250;2023-04-24T02:22:04;7.60;99.90
59311;DHT22;45078;51.654;21.250;2023-04-24T02:24:30;7.60;99.90
59311;DHT22;45078;51.654;21.250;2023-04-24T02:26:56;7.80;99.90
59311;DHT22;45078;51.654;21.250;2023-04-24T02:29:23;7.80;99.90
59311;DHT22;45078;51.654;21.250;2023-04-24T02:31:49;7.80;99.90
59311;DHT22;45078;51.654;21.250;2023-04-24T02:34:14;7.90;99.90
59311;DHT22;45078;51.654;21.250;2023-04-24T02:36:40;7.90;99.90
59311;DHT22;45078;51.654;21.250;2023-04-24T02:39:06;8.10;99.90
59311;DHT22;45078;51.654;21.250;2023-04-24T02:41:32;8.30;99.90
59311;DHT22;45078;51.654;21.250;2023-04-24T02:43:58;8.40;99.90
59311;DHT22;45078;51.654;21.250;2023-04-24T02:46:24;8.40;99.90
59311;DHT22;45078;51.654;21.250;2023-04-24T02:48:50;8.30;99.90
59311;DHT22;45078;51.654;21.250;2023-04-24T02:51:16;8.20;99.90
59311;DHT22;45078;51.654;21.250;2023-04-24T02:53:42;8.00;99.90
59311;DHT22;45078;51.654;21.250;2023-04-24T02:56:08;7.90;99.90
59311;DHT22;45078;51.654;21.250;2023-04-24T02:58:33;7.70;99.90
59311;DHT22;45078;51.654;21.250;2023-04-24T03:00:59;7.70;99.90
59311;DHT22;45078;51.654;21.250;2023-04-24T03:03:26;7.70;99.90
59311;DHT22;45078;51.654;21.250;2023-04-24T03:05:51;7.70;99.90
59311;DHT22;45078;51.654;21.250;2023-04-24T03:08:18;7.60;99.90
59311;DHT22;45078;51.654;21.250;2023-04-24T03:10:44;7.50;99.90
59311;DHT22;45078;51.654;21.250;2023-04-24T03:13:09;7.70;99.90
59311;DHT22;45078;51.654;21.250;2023-04-24T03:15:35;7.80;99.90
59311;DHT22;45078;51.654;21.250;2023-04-24T03:18:01;7.90;99.90
59311;DHT22;45078;51.654;21.250;2023-04-24T03:20:28;7.90;99.90
59311;DHT22;45078;51.654;21.250;2023-04-24T03:22:54;8.00;99.90
59311;DHT22;45078;51.654;21.250;2023-04-24T03:25:19;8.10;99.90
59311;DHT22;45078;51.654;21.250;2023-04-24T03:27:46;8.20;99.90
59311;DHT22;45078;51.654;21.250;2023-04-24T03:30:11;8.30;99.90
59311;DHT22;45078;51.654;21.250;2023-04-24T03:32:37;8.40;99.90
59311;DHT22;45078;51.654;21.250;2023-04-24T03:35:08;8.30;99.90
59311;DHT22;45078;51.654;21.250;2023-04-24T03:37:34;8.10;99.90
59311;DHT22;45078;51.654;21.250;2023-04-24T03:40:01;8.10;99.90
59311;DHT22;45078;51.654;21.250;2023-04-24T03:42:26;7.90;99.90
59311;DHT22;45078;51.654;21.250;2023-04-24T03:44:52;7.70;99.90
59311;DHT22;45078;51.654;21.250;2023-04-24T03:47:18;7.60;99.90
59311;DHT22;45078;51.654;21.250;2023-04-24T03:49:44;7.40;99.90
59311;DHT22;45078;51.654;21.250;2023-04-24T03:52:09;7.30;99.90
59311;DHT22;45078;51.654;21.250;2023-04-24T03:54:35;7.30;99.90
59311;DHT22;45078;51.654;21.250;2023-04-24T03:57:01;7.30;99.90
59311;DHT22;45078;51.654;21.250;2023-04-24T03:59:27;7.20;99.90
59311;DHT22;45078;51.654;21.250;2023-04-24T04:01:52;7.20;99.90
59311;DHT22;45078;51.654;21.250;2023-04-24T04:04:18;7.20;99.90
59311;DHT22;45078;51.654;21.250;2023-04-24T04:06:44;7.10;99.90
59311;DHT22;45078;51.654;21.250;2023-04-24T04:09:10;7.10;99.90
59311;DHT22;45078;51.654;21.250;2023-04-24T04:11:36;7.20;99.90
59311;DHT22;45078;51.654;21.250;2023-04-24T04:14:02;7.20;99.90
59311;DHT22;45078;51.654;21.250;2023-04-24T04:16:28;7.20;99.90
59311;DHT22;45078;51.654;21.250;2023-04-24T04:18:54;7.20;99.90
59311;DHT22;45078;51.654;21.250;2023-04-24T04:21:20;7.20;99.90
59311;DHT22;45078;51.654;21.250;2023-04-24T04:23:46;7.30;99.90
59311;DHT22;45078;51.654;21.250;2023-04-24T04:26:12;7.40;99.90
59311;DHT22;45078;51.654;21.250;2023-04-24T04:28:38;7.50;99.90
59311;DHT22;45078;51.654;21.250;2023-04-24T04:31:05;7.50;99.90
59311;DHT22;45078;51.654;21.250;2023-04-24T04:33:33;7.80;99.90
59311;DHT22;45078;51.654;21.250;2023-04-24T04:35:59;8.00;99.90
59311;DHT22;45078;51.654;21.250;2023-04-24T04:38:25;8.20;99.90
59311;DHT22;45078;51.654;21.250;2023-04-24T04:40:55;8.50;99.90
59311;DHT22;45078;51.654;21.250;2023-04-24T04:43:24;8.90;99.90
59311;DHT22;45078;51.654;21.250;2023-04-24T04:45:51;9.20;99.90
59311;DHT22;45078;51.654;21.250;2023-04-24T04:48:21;9.40;99.90
59311;DHT22;45078;51.654;21.250;2023-04-24T04:50:47;9.70;99.90
59311;DHT22;45078;51.654;21.250;2023-04-24T04:53:13;9.90;99.90
59311;DHT22;45078;51.654;21.250;2023-04-24T04:55:39;10.20;99.90
59311;DHT22;45078;51.654;21.250;2023-04-24T04:58:04;10.40;99.90
59311;DHT22;45078;51.654;21.250;2023-04-24T05:00:31;10.60;99.90
59311;DHT22;45078;51.654;21.250;2023-04-24T05:03:01;10.80;99.90
59311;DHT22;45078;51.654;21.250;2023-04-24T05:05:28;10.90;99.90
59311;DHT22;45078;51.654;21.250;2023-04-24T05:07:53;11.10;99.90
59311;DHT22;45078;51.654;21.250;2023-04-24T05:10:19;11.30;99.90
59311;DHT22;45078;51.654;21.250;2023-04-24T05:12:45;11.40;99.90
59311;DHT22;45078;51.654;21.250;2023-04-24T05:15:11;11.40;99.90
59311;DHT22;45078;51.654;21.250;2023-04-24T05:17:36;11.50;99.90
59311;DHT22;45078;51.654;21.250;2023-04-24T05:20:03;11.50;99.90
59311;DHT22;45078;51.654;21.250;2023-04-24T05:22:32;11.70;99.90
59311;DHT22;45078;51.654;21.250;2023-04-24T05:24:58;11.80;99.90
59311;DHT22;45078;51.654;21.250;2023-04-24T05:27:24;12.10;99.90
59311;DHT22;45078;51.654;21.250;2023-04-24T05:29:50;12.20;99.90
59311;DHT22;45078;51.654;21.250;2023-04-24T05:32:16;12.40;99.90
59311;DHT22;45078;51.654;21.250;2023-04-24T05:34:42;12.50;99.90
59311;DHT22;45078;51.654;21.250;2023-04-24T05:37:08;12.70;99.90
59311;DHT22;45078;51.654;21.250;2023-04-24T05:39:36;12.90;99.90
59311;DHT22;45078;51.654;21.250;2023-04-24T05:42:02;13.20;99.90
59311;DHT22;45078;51.654;21.250;2023-04-24T05:44:31;13.60;99.90
59311;DHT22;45078;51.654;21.250;2023-04-24T05:46:56;14.10;99.90
59311;DHT22;45078;51.654;21.250;2023-04-24T05:49:22;14.40;99.90
59311;DHT22;45078;51.654;21.250;2023-04-24T05:51:48;14.60;99.90
59311;DHT22;45078;51.654;21.250;2023-04-24T05:54:14;14.80;99.90
59311;DHT22;45078;51.654;21.250;2023-04-24T05:56:40;14.80;99.90
59311;DHT22;45078;51.654;21.250;2023-04-24T05:59:06;14.70;99.90
59311;DHT22;45078;51.654;21.250;2023-04-24T06:01:33;14.70;99.90
59311;DHT22;45078;51.654;21.250;2023-04-24T06:03:59;15.10;99.90
59311;DHT22;45078;51.654;21.250;2023-04-24T06:06:24;15.20;99.90
59311;DHT22;45078;51.654;21.250;2023-04-24T06:08:51;15.00;99.90
59311;DHT22;45078;51.654;21.250;2023-04-24T06:11:17;14.70;99.90
59311;DHT22;45078;51.654;21.250;2023-04-24T06:13:43;14.50;99.90
59311;DHT22;45078;51.654;21.250;2023-04-24T06:16:10;14.80;99.90
59311;DHT22;45078;51.654;21.250;2023-04-24T06:18:36;14.90;99.90
59311;DHT22;45078;51.654;21.250;2023-04-24T06:21:02;15.10;99.90
59311;DHT22;45078;51.654;21.250;2023-04-24T06:23:28;15.40;99.90
59311;DHT22;45078;51.654;21.250;2023-04-24T06:25:55;15.60;99.90
59311;DHT22;45078;51.654;21.250;2023-04-24T06:28:21;15.70;99.90
59311;DHT22;45078;51.654;21.250;2023-04-24T06:30:47;15.90;99.90
59311;DHT22;45078;51.654;21.250;2023-04-24T06:33:12;16.00;99.90
59311;DHT22;45078;51.654;21.250;2023-04-24T06:35:38;16.10;99.90
59311;DHT22;45078;51.654;21.250;2023-04-24T06:38:04;16.20;99.90
59311;DHT22;45078;51.654;21.250;2023-04-24T06:40:30;16.20;99.90
59311;DHT22;45078;51.654;21.250;2023-04-24T06:42:56;16.30;99.90
59311;DHT22;45078;51.654;21.250;2023-04-24T06:45:24;16.20;99.90
59311;DHT22;45078;51.654;21.250;2023-04-24T06:47:50;16.10;99.90
59311;DHT22;45078;51.654;21.250;2023-04-24T06:50:15;16.30;99.90
59311;DHT22;45078;51.654;21.250;2023-04-24T06:52:42;16.20;99.90
59311;DHT22;45078;51.654;21.250;2023-04-24T06:55:09;16.30;99.90
59311;DHT22;45078;51.654;21.250;2023-04-24T06:57:36;16.40;99.90
59311;DHT22;45078;51.654;21.250;2023-04-24T07:00:04;16.50;99.90
59311;DHT22;45078;51.654;21.250;2023-04-24T07:02:30;16.80;99.90
59311;DHT22;45078;51.654;21.250;2023-04-24T07:04:56;17.20;99.90
59311;DHT22;45078;51.654;21.250;2023-04-24T07:07:22;17.30;99.90
59311;DHT22;45078;51.654;21.250;2023-04-24T07:09:49;17.30;99.90
59311;DHT22;45078;51.654;21.250;2023-04-24T07:12:16;17.10;98.90
59311;DHT22;45078;51.654;21.250;2023-04-24T07:14:42;16.80;97.80
59311;DHT22;45078;51.654;21.250;2023-04-24T07:17:08;16.40;98.40
59311;DHT22;45078;51.654;21.250;2023-04-24T07:19:34;16.30;99.90
59311;DHT22;45078;51.654;21.250;2023-04-24T07:22:03;16.40;99.90
59311;DHT22;45078;51.654;21.250;2023-04-24T07:24:29;16.40;99.90
59311;DHT22;45078;51.654;21.250;2023-04-24T07:26:55;16.40;99.90
59311;DHT22;45078;51.654;21.250;2023-04-24T07:29:22;16.40;99.90
59311;DHT22;45078;51.654;21.250;2023-04-24T07:31:48;16.40;99.90
59311;DHT22;45078;51.654;21.250;2023-04-24T07:34:13;16.40;99.90
59311;DHT22;45078;51.654;21.250;2023-04-24T07:36:41;16.60;99.90
59311;DHT22;45078;51.654;21.250;2023-04-24T07:39:07;16.70;99.90
59311;DHT22;45078;51.654;21.250;2023-04-24T07:41:33;16.80;99.60
59311;DHT22;45078;51.654;21.250;2023-04-24T07:43:59;16.80;98.40
59311;DHT22;45078;51.654;21.250;2023-04-24T07:46:25;17.20;99.00
59311;DHT22;45078;51.654;21.250;2023-04-24T07:48:51;17.30;97.80
59311;DHT22;45078;51.654;21.250;2023-04-24T07:51:17;17.30;96.90
59311;DHT22;45078;51.654;21.250;2023-04-24T07:53:43;17.50;96.50
59311;DHT22;45078;51.654;21.250;2023-04-24T07:56:09;17.70;95.40
59311;DHT22;45078;51.654;21.250;2023-04-24T07:58:35;17.80;92.60
59311;DHT22;45078;51.654;21.250;2023-04-24T08:01:01;17.80;94.20
59311;DHT22;45078;51.654;21.250;2023-04-24T08:03:27;17.80;92.50
59311;DHT22;45078;51.654;21.250;2023-04-24T08:05:52;18.00;93.70
59311;DHT22;45078;51.654;21.250;2023-04-24T08:08:21;18.20;93.80
59311;DHT22;45078;51.654;21.250;2023-04-24T08:10:47;18.30;90.30
59311;DHT22;45078;51.654;21.250;2023-04-24T08:13:13;18.20;88.90
59311;DHT22;45078;51.654;21.250;2023-04-24T08:15:39;18.20;90.60
59311;DHT22;45078;51.654;21.250;2023-04-24T08:18:04;18.20;90.50
59311;DHT22;45078;51.654;21.250;2023-04-24T08:20:30;18.40;92.60
59311;DHT22;45078;51.654;21.250;2023-04-24T08:22:56;18.60;88.60
59311;DHT22;45078;51.654;21.250;2023-04-24T08:25:22;18.70;87.80
59311;DHT22;45078;51.654;21.250;2023-04-24T08:27:50;18.80;84.90
59311;DHT22;45078;51.654;21.250;2023-04-24T08:30:16;19.10;90.90
59311;DHT22;45078;51.654;21.250;2023-04-24T08:32:42;19.40;88.50
59311;DHT22;45078;51.654;21.250;2023-04-24T08:35:08;19.40;82.70
59311;DHT22;45078;51.654;21.250;2023-04-24T08:37:37;19.30;80.30
59311;DHT22;45078;51.654;21.250;2023-04-24T08:40:12;19.30;79.40
59311;DHT22;45078;51.654;21.250;2023-04-24T08:42:39;19.40;80.30
59311;DHT22;45078;51.654;21.250;2023-04-24T08:45:07;19.40;79.40
59311;DHT22;45078;51.654;21.250;2023-04-24T08:47:35;19.50;77.50
59311;DHT22;45078;51.654;21.250;2023-04-24T08:50:02;19.60;77.30
59311;DHT22;45078;51.654;21.250;2023-04-24T08:52:28;19.60;73.30
59311;DHT22;45078;51.654;21.250;2023-04-24T08:54:55;19.80;76.70
59311;DHT22;45078;51.654;21.250;2023-04-24T08:57:22;19.80;71.70
59311;DHT22;45078;51.654;21.250;2023-04-24T08:59:48;19.50;71.30
59311;DHT22;45078;51.654;21.250;2023-04-24T09:02:14;19.60;69.20
59311;DHT22;45078;51.654;21.250;2023-04-24T09:04:42;19.70;72.70
59311;DHT22;45078;51.654;21.250;2023-04-24T09:07:09;19.80;72.60
59311;DHT22;45078;51.654;21.250;2023-04-24T09:09:38;19.90;75.00
59311;DHT22;45078;51.654;21.250;2023-04-24T09:12:04;19.90;72.20
59311;DHT22;45078;51.654;21.250;2023-04-24T09:14:30;20.10;69.10
59311;DHT22;45078;51.654;21.250;2023-04-24T09:16:57;20.10;70.70
59311;DHT22;45078;51.654;21.250;2023-04-24T09:19:23;20.20;70.00
59311;DHT22;45078;51.654;21.250;2023-04-24T09:21:49;20.40;70.70
59311;DHT22;45078;51.654;21.250;2023-04-24T09:24:19;20.50;71.20
59311;DHT22;45078;51.654;21.250;2023-04-24T09:26:57;20.20;69.80
59311;DHT22;45078;51.654;21.250;2023-04-24T09:29:24;20.30;68.90
59311;DHT22;45078;51.654;21.250;2023-04-24T09:31:50;20.40;71.40
59311;DHT22;45078;51.654;21.250;2023-04-24T09:34:24;20.70;69.30
59311;DHT22;45078;51.654;21.250;2023-04-24T09:36:51;20.60;69.00
59311;DHT22;45078;51.654;21.250;2023-04-24T09:39:17;20.70;70.50
59311;DHT22;45078;51.654;21.250;2023-04-24T09:41:53;20.90;68.90
59311;DHT22;45078;51.654;21.250;2023-04-24T09:44:21;20.90;71.50
59311;DHT22;45078;51.654;21.250;2023-04-24T09:47:09;21.20;71.00
59311;DHT22;45078;51.654;21.250;2023-04-24T09:49:35;21.50;69.30
59311;DHT22;45078;51.654;21.250;2023-04-24T09:52:11;21.30;68.80
59311;DHT22;45078;51.654;21.250;2023-04-24T09:54:38;21.50;68.80
59311;DHT22;45078;51.654;21.250;2023-04-24T09:57:04;21.40;69.00
59311;DHT22;45078;51.654;21.250;2023-04-24T09:59:30;21.40;69.30
59311;DHT22;45078;51.654;21.250;2023-04-24T10:01:56;21.50;69.80
59311;DHT22;45078;51.654;21.250;2023-04-24T10:04:28;21.70;70.90
59311;DHT22;45078;51.654;21.250;2023-04-24T10:06:56;21.80;68.70
59311;DHT22;45078;51.654;21.250;2023-04-24T10:09:24;21.90;68.80
59311;DHT22;45078;51.654;21.250;2023-04-24T10:11:53;21.90;66.00
59311;DHT22;45078;51.654;21.250;2023-04-24T10:14:23;22.00;65.70
59311;DHT22;45078;51.654;21.250;2023-04-24T10:16:50;22.00;65.30
59311;DHT22;45078;51.654;21.250;2023-04-24T10:19:18;21.80;68.10
59311;DHT22;45078;51.654;21.250;2023-04-24T10:21:44;21.80;68.50
59311;DHT22;45078;51.654;21.250;2023-04-24T10:24:15;21.90;71.10
59311;DHT22;45078;51.654;21.250;2023-04-24T10:26:42;22.10;66.90
59311;DHT22;45078;51.654;21.250;2023-04-24T10:29:08;22.40;66.20
59311;DHT22;45078;51.654;21.250;2023-04-24T10:31:38;22.40;63.10
59311;DHT22;45078;51.654;21.250;2023-04-24T10:34:07;22.30;62.90
59311;DHT22;45078;51.654;21.250;2023-04-24T10:36:35;22.30;62.30
59311;DHT22;45078;51.654;21.250;2023-04-24T10:39:04;22.30;62.50
59311;DHT22;45078;51.654;21.250;2023-04-24T10:41:31;22.40;63.20
59311;DHT22;45078;51.654;21.250;2023-04-24T10:44:11;22.70;62.70
59311;DHT22;45078;51.654;21.250;2023-04-24T10:46:38;22.80;59.20
59311;DHT22;45078;51.654;21.250;2023-04-24T10:49:07;22.70;59.00
59311;DHT22;45078;51.654;21.250;2023-04-24T10:51:51;22.80;57.40
59311;DHT22;45078;51.654;21.250;2023-04-24T10:54:28;22.90;58.00
59311;DHT22;45078;51.654;21.250;2023-04-24T11:00:15;22.80;60.40
59311;DHT22;45078;51.654;21.250;2023-04-24T11:02:41;23.00;58.60
59311;DHT22;45078;51.654;21.250;2023-04-24T11:05:17;22.70;61.20
59311;DHT22;45078;51.654;21.250;2023-04-24T11:10:47;22.00;60.70
59311;DHT22;45078;51.654;21.250;2023-04-24T11:13:16;22.00;61.40
59311;DHT22;45078;51.654;21.250;2023-04-24T11:15:42;22.10;61.70
59311;DHT22;45078;51.654;21.250;2023-04-24T11:18:15;22.00;60.00
59311;DHT22;45078;51.654;21.250;2023-04-24T11:20:45;21.90;61.60
59311;DHT22;45078;51.654;21.250;2023-04-24T11:23:13;21.80;62.50
59311;DHT22;45078;51.654;21.250;2023-04-24T11:25:39;21.80;60.30
59311;DHT22;45078;51.654;21.250;2023-04-24T11:28:07;21.60;60.20
59311;DHT22;45078;51.654;21.250;2023-04-24T11:30:33;21.60;60.10
59311;DHT22;45078;51.654;21.250;2023-04-24T11:33:04;21.60;58.80
59311;DHT22;45078;51.654;21.250;2023-04-24T11:35:35;21.80;57.50
59311;DHT22;45078;51.654;21.250;2023-04-24T11:38:03;21.70;56.30
59311;DHT22;45078;51.654;21.250;2023-04-24T11:40:30;21.90;54.60
59311;DHT22;45078;51.654;21.250;2023-04-24T11:42:56;21.80;53.70
59311;DHT22;45078;51.654;21.250;2023-04-24T11:45:27;21.90;54.70
59311;DHT22;45078;51.654;21.250;2023-04-24T11:47:53;22.40;54.40
59311;DHT22;45078;51.654;21.250;2023-04-24T11:50:22;22.70;50.10
59311;DHT22;45078;51.654;21.250;2023-04-24T11:52:49;22.80;49.00
59311;DHT22;45078;51.654;21.250;2023-04-24T11:57:50;23.00;47.40
59311;DHT22;45078;51.654;21.250;2023-04-24T12:00:20;23.10;49.60
59311;DHT22;45078;51.654;21.250;2023-04-24T12:02:48;23.00;50.80
59311;DHT22;45078;51.654;21.250;2023-04-24T12:05:27;23.20;47.70
59311;DHT22;45078;51.654;21.250;2023-04-24T12:07:54;23.30;47.70
59311;DHT22;45078;51.654;21.250;2023-04-24T12:10:24;23.30;48.10
59311;DHT22;45078;51.654;21.250;2023-04-24T12:12:51;23.50;46.50
59311;DHT22;45078;51.654;21.250;2023-04-24T12:15:19;23.60;48.30
59311;DHT22;45078;51.654;21.250;2023-04-24T12:17:46;23.80;48.10
59311;DHT22;45078;51.654;21.250;2023-04-24T12:20:13;23.80;46.80
59311;DHT22;45078;51.654;21.250;2023-04-24T12:22:53;23.80;46.10
59311;DHT22;45078;51.654;21.250;2023-04-24T12:25:24;24.00;44.50
59311;DHT22;45078;51.654;21.250;2023-04-24T12:28:11;23.80;45.90
59311;DHT22;45078;51.654;21.250;2023-04-24T12:30:42;23.30;44.10
59311;DHT22;45078;51.654;21.250;2023-04-24T12:33:10;23.60;44.50
59311;DHT22;45078;51.654;21.250;2023-04-24T12:35:36;23.50;44.60
59311;DHT22;45078;51.654;21.250;2023-04-24T12:38:15;23.10;45.50
59311;DHT22;45078;51.654;21.250;2023-04-24T12:40:42;23.30;46.70
59311;DHT22;45078;51.654;21.250;2023-04-24T12:43:15;23.50;47.50
59311;DHT22;45078;51.654;21.250;2023-04-24T12:45:44;23.80;46.60
59311;DHT22;45078;51.654;21.250;2023-04-24T12:48:11;24.00;44.50
59311;DHT22;45078;51.654;21.250;2023-04-24T12:50:39;24.00;44.80
59311;DHT22;45078;51.654;21.250;2023-04-24T12:53:07;24.20;46.00
59311;DHT22;45078;51.654;21.250;2023-04-24T12:55:34;24.20;54.80
59311;DHT22;45078;51.654;21.250;2023-04-24T12:57:59;23.30;55.70
59311;DHT22;45078;51.654;21.250;2023-04-24T13:00:26;22.90;57.60
59311;DHT22;45078;51.654;21.250;2023-04-24T13:02:51;22.30;61.90
59311;DHT22;45078;51.654;21.250;2023-04-24T13:05:17;22.20;63.00
59311;DHT22;45078;51.654;21.250;2023-04-24T13:07:43;22.30;65.60
59311;DHT22;45078;51.654;21.250;2023-04-24T13:10:10;22.60;64.40
59311;DHT22;45078;51.654;21.250;2023-04-24T13:12:36;22.50;65.40
59311;DHT22;45078;51.654;21.250;2023-04-24T13:15:02;22.50;64.80
59311;DHT22;45078;51.654;21.250;2023-04-24T13:17:29;22.90;61.70
59311;DHT22;45078;51.654;21.250;2023-04-24T13:19:55;23.10;59.60
59311;DHT22;45078;51.654;21.250;2023-04-24T13:22:21;23.50;63.10
59311;DHT22;45078;51.654;21.250;2023-04-24T13:24:47;24.20;60.90
59311;DHT22;45078;51.654;21.250;2023-04-24T13:27:15;24.20;57.20
59311;DHT22;45078;51.654;21.250;2023-04-24T13:29:41;24.50;58.40
59311;DHT22;45078;51.654;21.250;2023-04-24T13:32:07;24.30;57.50
59311;DHT22;45078;51.654;21.250;2023-04-24T13:34:33;24.90;55.40
59311;DHT22;45078;51.654;21.250;2023-04-24T13:37:00;25.10;56.60
59311;DHT22;45078;51.654;21.250;2023-04-24T13:39:26;25.00;56.20
59311;DHT22;45078;51.654;21.250;2023-04-24T13:41:52;25.60;56.20
59311;DHT22;45078;51.654;21.250;2023-04-24T13:44:19;25.90;55.50
59311;DHT22;45078;51.654;21.250;2023-04-24T13:46:47;25.70;42.80
59311;DHT22;45078;51.654;21.250;2023-04-24T13:49:13;25.90;39.60
59311;DHT22;45078;51.654;21.250;2023-04-24T13:51:40;24.70;40.40
59311;DHT22;45078;51.654;21.250;2023-04-24T13:54:07;24.90;41.80
59311;DHT22;45078;51.654;21.250;2023-04-24T13:56:32;24.90;40.30
59311;DHT22;45078;51.654;21.250;2023-04-24T13:58:59;25.50;39.20
59311;DHT22;45078;51.654;21.250;2023-04-24T14:01:25;24.90;37.40
59311;DHT22;45078;51.654;21.250;2023-04-24T14:03:51;24.60;37.00
59311;DHT22;45078;51.654;21.250;2023-04-24T14:06:20;25.20;36.20
59311;DHT22;45078;51.654;21.250;2023-04-24T14:08:46;26.30;36.00
59311;DHT22;45078;51.654;21.250;2023-04-24T14:11:12;26.00;35.70
59311;DHT22;45078;51.654;21.250;2023-04-24T14:13:38;26.40;34.70
59311;DHT22;45078;51.654;21.250;2023-04-24T14:16:06;27.40;37.00
59311;DHT22;45078;51.654;21.250;2023-04-24T14:18:31;27.90;33.90
59311;DHT22;45078;51.654;21.250;2023-04-24T14:20:57;28.40;34.00
59311;DHT22;45078;51.654;21.250;2023-04-24T14:23:23;27.30;35.10
59311;DHT22;45078;51.654;21.250;2023-04-24T14:25:49;26.70;34.60
59311;DHT22;45078;51.654;21.250;2023-04-24T14:28:21;26.60;35.50
59311;DHT22;45078;51.654;21.250;2023-04-24T14:30:47;25.10;36.40
59311;DHT22;45078;51.654;21.250;2023-04-24T14:33:14;24.20;38.70
59311;DHT22;45078;51.654;21.250;2023-04-24T14:35:41;24.80;39.50
59311;DHT22;45078;51.654;21.250;2023-04-24T14:38:10;24.70;37.00
59311;DHT22;45078;51.654;21.250;2023-04-24T14:40:37;25.50;38.00
59311;DHT22;45078;51.654;21.250;2023-04-24T14:43:03;26.60;36.90
59311;DHT22;45078;51.654;21.250;2023-04-24T14:45:29;27.80;35.90
59311;DHT22;45078;51.654;21.250;2023-04-24T14:47:55;28.50;35.20
59311;DHT22;45078;51.654;21.250;2023-04-24T14:50:22;28.20;34.50
59311;DHT22;45078;51.654;21.250;2023-04-24T14:52:47;28.40;34.70
59311;DHT22;45078;51.654;21.250;2023-04-24T14:55:14;27.70;35.90
59311;DHT22;45078;51.654;21.250;2023-04-24T14:57:40;27.80;34.40
59311;DHT22;45078;51.654;21.250;2023-04-24T15:00:06;27.30;35.30
59311;DHT22;45078;51.654;21.250;2023-04-24T15:02:34;26.60;35.50
59311;DHT22;45078;51.654;21.250;2023-04-24T15:05:02;26.50;35.70
59311;DHT22;45078;51.654;21.250;2023-04-24T15:07:29;25.50;35.60
59311;DHT22;45078;51.654;21.250;2023-04-24T15:09:56;26.10;36.40
59311;DHT22;45078;51.654;21.250;2023-04-24T15:12:22;26.20;35.50
59311;DHT22;45078;51.654;21.250;2023-04-24T15:14:48;26.00;37.00
59311;DHT22;45078;51.654;21.250;2023-04-24T15:17:13;25.70;36.50
59311;DHT22;45078;51.654;21.250;2023-04-24T15:19:39;25.30;36.50
59311;DHT22;45078;51.654;21.250;2023-04-24T15:22:05;24.90;37.50
59311;DHT22;45078;51.654;21.250;2023-04-24T15:24:31;24.70;38.20
59311;DHT22;45078;51.654;21.250;2023-04-24T15:26:58;24.20;38.30